Athol, ID

1:02 PM PDT on August 22, 2014 (GMT -0700)
Ramsey Estates | Change Station
CLOSE
Current Station
Personal Weather Station
Location: Rathdrum, ID
Elevation: 2330 ft
Nearby Weather Stations

Elev 2330 ft 47.87 °N, 116.81 °W | Updated 0 second ago

Clear
Clear
68.9 °F
Feels Like 68.9 °F
N
4.0
Wind Variable Wind from NNW
Gusts 5.4 mph

Today
High -- | Low -- °F
--% Chance of Precip.
Yesterday
High -- | Low -- °F
Precip. -- in
5:51 AM 7:46 PM
Waning Crescent, 7% visible
Pressure 30.00 in
Visibility 10.0 miles
Clouds Clear
Dew Point 10 °F
Humidity 10%
Rainfall 0.04 in
Snow Depth Not available.
UV 9 out of 12
Pollen 6.60 out of 12
Air Quality Not available.
Flu Activity Not available.
METAR KCOE 221955Z AUTO 03015G21KT 10SM CLR 22/11 A3000 RMK AO1

More Conditions Fewer Conditions

Pressure 30.00 in
Visibility 10.0 miles
Clouds Clear
Dew Point 10 °F
Humidity 10%
Rainfall 0.04 in
Snow Depth Not available.
UV 9 out of 12
Pollen 6.60 out of 12
Air Quality Not available.
Flu Activity Not available.
METAR KCOE 221955Z AUTO 03015G21KT 10SM CLR 22/11 A3000 RMK AO1

More Conditions Fewer Conditions

10-Day Weather Forecast

Almanac

Astronomy

Aug. 22, 2014 Rise Set
Actual Time 5:51 AM PDT 7:46 PM PDT
Civil Twilight 5:18 AM PDT 8:19 PM PDT
Nautical Twilight 4:37 AM PDT 9:00 PM PDT
Astronomical Twilight 3:51 AM PDT 9:45 PM PDT
Moon 3:12 AM PDT 6:01 PM PDT
Length of Visible Light 15h 01m
Length of Day
13h 55m
Tomorrow will be 3m 15s shorter.
Waning Crescent, 7% of the Moon is Illuminated
Today
Waning Crescent
Aug 25
New
Sep 2
First Quarter
Sep 8
Full
Sep 15
Last Quarter

Today's Extremes

State Highs State Lows

Community

WunderPhotos

Upload Photos

1,746,239 photos uploaded!

Nearby

Snow Depth

Station Depth Elevation
Mosquito Ridge 0 in 5200 ft
Schweitzer Basin 0 in 6090 ft
Bear Mountain 0 in 5400 ft
Humboldt Gulch 1 in 4250 ft
Myrtle Creek 1 in 3520 ft

Earthquake Activity

City Distance Mag. Time & Date
No recent earthquake activity has been reported nearby.
Minimum magnitude displayed is 2.5.

Coastal Water Temperatures

Place Temperature
No Stations Reporting

Nearby Weather Stations